Pagrindinis puslapis
METAR-TAF:

METAR-TAF

Oro uostai :

Batam, Indonezija

platuma: 01-07-15N, ilguma: 104-07-07E, Aukštis: 38 m

Dabartinis oras

Ataskaita buvo paskelbta 11 valandos ir 8 minutes, ne 10:00 UTC
Vėjas 7 kt iš Šiaurės Rytų
Temperatūra 30°C
Drėgmė 66%
Slėgis 1011 hPa
Matomumas 10 km arba daugiau
Išsisklaidę debesys ne aukštis 1400 ft

METAR: WIDD 121000Z 05007KT 9999 SCT014 30/23 Q1011 NOSIG

Laikas: 04:08 (21:08 UTC)

Prognozė

Ataskaita buvo paskelbta 4 valandos ir 8 minutes, ne 17:00 UTC
Prognozė galioja nuo 12 metu 18 UTC su 13 metu 18 UTC
Vėjas 5 kt iš Rytų
Matomumas 10 km arba daugiau
Mažai debesys ne aukštis 1400 ft

TAF: WIDD 121700Z 1218/1318 08005KT 9999 FEW014

Orai ataskaitas ir orų prognozės (METAR, TAF).

turimą stotys yra geltonos ir raudonos taškus žemėlapyje.

Perkelti pele per norėdami pamatyti stoties vardą.

Tada spustelėkite, norėdami matyti oro stebėjimo ir prognozės.

Norėdami pakeisti žemėlapį: spustelėkite ant žalios mygtukų su juodo kryžiaus žemyn,; žalią mygtuką su brūkšneliu, jei norite nutolinti; arba žalių rodyklių gretimoms žemėlapius.


METAR-TAF: